Time;durP1;ratioP1;P1;durP2;ratioP2;P2;SDS_P1;SDS_P2;PMS_P1;PMS_P2;Temp;Humidity;BMP_temperature;BMP_pressure;BME280_temperature;BME280_humidity;BME280_pressure;Samples;Min_cycle;Max_cycle;Signal;HPM_P1;HPM_P2
2022/12/21 00:01:47;;;;;;;111.35;24.02;;;7.80;99.90;;;;;;5045585;28;20053;-49
2022/12/21 00:04:13;;;;;;;121.22;25.42;;;7.60;99.90;;;;;;5045444;28;20041;-47
2022/12/21 00:06:39;;;;;;;128.93;26.38;;;7.70;99.90;;;;;;5045934;28;20244;-50
2022/12/21 00:09:09;;;;;;;141.57;27.27;;;7.50;99.90;;;;;;5046077;28;20040;-48
2022/12/21 00:11:35;;;;;;;123.13;25.13;;;7.50;99.90;;;;;;5046751;28;20067;-47
2022/12/21 00:14:03;;;;;;;149.95;27.75;;;7.40;99.90;;;;;;5047215;28;20052;-46
2022/12/21 00:16:30;;;;;;;105.53;24.67;;;7.50;99.90;;;;;;5046874;28;20044;-46
2022/12/21 00:18:57;;;;;;;119.72;25.27;;;7.60;99.90;;;;;;5047028;28;20049;-46
2022/12/21 00:21:32;;;;;;;122.55;25.88;;;7.40;99.90;;;;;;5046321;28;20073;-48
2022/12/21 00:23:59;;;;;;;122.57;25.88;;;7.40;99.90;;;;;;5046549;28;20382;-46
2022/12/21 00:26:29;;;;;;;129.07;25.13;;;7.10;99.90;;;;;;5046597;28;20043;-45
2022/12/21 00:28:56;;;;;;;102.65;24.17;;;7.00;99.90;;;;;;5046663;28;20076;-46
2022/12/21 00:31:24;;;;;;;157.35;27.27;;;7.30;99.90;;;;;;5046182;28;20041;-46
2022/12/21 00:33:51;;;;;;;126.20;25.45;;;6.70;99.90;;;;;;5046002;28;20060;-45
2022/12/21 00:36:18;;;;;;;157.65;28.88;;;6.60;99.90;;;;;;5046041;28;20412;-45
2022/12/21 00:38:46;;;;;;;148.52;29.10;;;7.30;99.90;;;;;;5050486;28;20045;-45
2022/12/21 00:41:15;;;;;;;130.25;26.88;;;6.90;99.90;;;;;;5050131;28;20947;-46
2022/12/21 00:43:42;;;;;;;123.13;27.55;;;7.60;99.90;;;;;;5050585;28;20530;-49
2022/12/21 00:46:17;;;;;;;129.02;26.45;;;6.60;99.90;;;;;;5050282;28;20063;-49
2022/12/21 00:48:43;;;;;;;144.13;29.30;;;6.80;99.90;;;;;;5050426;28;20079;-46
2022/12/21 00:51:15;;;;;;;156.00;29.13;;;7.00;99.90;;;;;;5049992;28;20668;-45
2022/12/21 00:53:41;;;;;;;142.13;29.33;;;7.00;99.90;;;;;;5050516;28;20049;-45
2022/12/21 00:56:08;;;;;;;149.82;30.02;;;6.60;99.90;;;;;;5049754;28;20041;-47
2022/12/21 00:58:35;;;;;;;157.52;30.08;;;6.60;99.90;;;;;;5049892;28;20037;-46
2022/12/21 01:01:05;;;;;;;142.50;29.48;;;6.40;99.90;;;;;;5049992;28;20129;-46
2022/12/21 01:03:31;;;;;;;147.00;28.42;;;6.30;99.90;;;;;;5049530;28;20060;-45
2022/12/21 01:05:57;;;;;;;139.13;28.60;;;6.00;99.90;;;;;;5050139;28;20501;-46
2022/12/21 01:08:24;;;;;;;152.27;29.55;;;7.10;99.90;;;;;;5049610;28;20049;-46
2022/12/21 01:10:56;;;;;;;148.65;29.25;;;6.20;99.90;;;;;;5049640;28;20049;-48
2022/12/21 01:13:22;;;;;;;179.13;31.52;;;7.40;99.90;;;;;;5049618;28;20223;-45
2022/12/21 01:15:48;;;;;;;176.25;31.88;;;5.10;99.90;;;;;;5049857;28;20057;-43
2022/12/21 01:18:15;;;;;;;137.35;28.45;;;6.20;99.90;;;;;;5049219;28;20048;-45
2022/12/21 01:20:43;;;;;;;143.20;28.38;;;6.70;99.90;;;;;;5049764;28;20056;-45
2022/12/21 01:23:09;;;;;;;152.05;29.80;;;6.30;99.90;;;;;;5049794;28;20052;-44
2022/12/21 01:25:34;;;;;;;140.10;27.50;;;7.40;99.90;;;;;;5049628;28;20036;-43
2022/12/21 01:28:00;;;;;;;142.52;27.45;;;6.50;99.90;;;;;;5049784;28;20048;-44
2022/12/21 01:30:26;;;;;;;138.00;26.23;;;6.60;99.90;;;;;;5049379;28;20045;-44
2022/12/21 01:32:52;;;;;;;134.57;25.98;;;6.60;99.90;;;;;;5049812;28;20056;-45
2022/12/21 01:35:18;;;;;;;112.22;21.02;;;7.50;99.90;;;;;;5048980;28;20041;-46
2022/12/21 01:37:43;;;;;;;145.77;25.52;;;6.50;99.90;;;;;;5049724;28;20041;-45
2022/12/21 01:40:10;;;;;;;118.80;24.20;;;6.30;99.90;;;;;;5049620;28;20040;-44
2022/12/21 01:42:36;;;;;;;123.20;23.88;;;6.60;99.90;;;;;;5049740;28;20041;-44
2022/12/21 01:45:17;;;;;;;149.98;27.70;;;6.50;99.90;;;;;;5049483;28;20740;-44
2022/12/21 01:47:54;;;;;;;140.73;26.58;;;6.60;99.90;;;;;;5048440;28;20048;-45
2022/12/21 01:50:50;;;;;;;140.82;27.17;;;6.50;99.90;;;;;;5048987;28;20037;-44
2022/12/21 01:53:41;;;;;;;151.70;27.35;;;6.50;99.90;;;;;;5048829;28;20414;-44
2022/12/21 01:56:10;;;;;;;168.35;29.38;;;6.60;99.90;;;;;;5048746;28;20055;-44
2022/12/21 01:58:36;;;;;;;135.20;26.90;;;7.60;99.90;;;;;;5048714;28;20139;-44
2022/12/21 02:01:03;;;;;;;129.98;23.58;;;6.50;99.90;;;;;;5048517;28;20053;-44
2022/12/21 02:03:37;;;;;;;159.70;25.75;;;7.40;99.90;;;;;;5048209;28;20726;-45
2022/12/21 02:06:35;;;;;;;144.45;25.38;;;6.60;99.90;;;;;;5048822;28;20053;-43
2022/12/21 02:09:02;;;;;;;150.95;25.58;;;6.70;99.90;;;;;;5036053;28;20068;-45
2022/12/21 02:11:28;;;;;;;146.73;24.88;;;6.70;99.90;;;;;;5048503;28;20048;-44
2022/12/21 02:13:54;;;;;;;159.38;25.98;;;6.70;99.90;;;;;;5048835;28;20082;-45
2022/12/21 02:16:26;;;;;;;178.20;26.08;;;6.70;99.90;;;;;;5048627;28;20171;-44
2022/12/21 02:19:27;;;;;;;142.07;23.20;;;6.80;99.90;;;;;;5048767;28;20056;-44
2022/12/21 02:22:10;;;;;;;163.90;24.38;;;6.80;99.90;;;;;;5028469;28;20053;-44
2022/12/21 02:24:56;;;;;;;176.38;24.00;;;7.30;99.90;;;;;;5048500;28;20045;-44
2022/12/21 02:27:25;;;;;;;176.50;26.45;;;6.80;99.90;;;;;;5048499;28;20048;-44
2022/12/21 02:30:15;;;;;;;145.50;24.67;;;6.80;99.90;;;;;;5048763;28;20091;-46
2022/12/21 02:32:54;;;;;;;167.30;24.42;;;6.80;99.90;;;;;;5048731;28;20098;-44
2022/12/21 02:35:43;;;;;;;137.95;23.63;;;6.80;99.90;;;;;;5047947;28;20060;-44
2022/12/21 02:38:34;;;;;;;222.07;26.13;;;6.80;99.90;;;;;;5048270;28;20049;-45
2022/12/21 02:41:08;;;;;;;168.48;23.35;;;6.80;99.90;;;;;;5048328;28;20122;-44
2022/12/21 02:46:47;;;;;;;199.00;25.02;;;7.10;99.90;;;;;;5048342;28;20056;-44
2022/12/21 02:49:28;;;;;;;247.02;26.45;;;6.80;99.90;;;;;;5047898;28;20049;-44
2022/12/21 02:52:15;;;;;;;225.07;25.67;;;6.70;99.90;;;;;;5047506;28;20051;-47
2022/12/21 02:54:41;;;;;;;171.88;22.65;;;6.80;99.90;;;;;;5047354;28;20049;-44
2022/12/21 02:57:07;;;;;;;159.55;21.52;;;6.90;99.90;;;;;;5047654;28;20048;-41
2022/12/21 02:59:40;;;;;;;145.05;21.02;;;6.60;99.90;;;;;;5047226;28;20482;-54
2022/12/21 03:02:36;;;;;;;152.48;21.20;;;7.20;99.90;;;;;;5047619;28;20115;-55
2022/12/21 03:05:25;;;;;;;162.20;23.75;;;6.80;99.90;;;;;;5048090;28;20049;-45
2022/12/21 03:08:07;;;;;;;126.22;21.35;;;6.70;99.90;;;;;;5047990;28;20052;-48
2022/12/21 03:10:53;;;;;;;161.85;21.40;;;7.60;99.90;;;;;;5047867;28;20056;-48
2022/12/21 03:13:49;;;;;;;117.47;22.23;;;6.70;99.90;;;;;;5047867;28;20087;-50
2022/12/21 03:16:34;;;;;;;161.93;22.83;;;6.70;99.90;;;;;;5044269;28;20403;-46
2022/12/21 03:19:13;;;;;;;137.30;21.48;;;6.70;99.90;;;;;;5047284;28;20099;-47
2022/12/21 03:21:41;;;;;;;151.30;22.98;;;6.70;99.90;;;;;;5047163;28;20122;-46
2022/12/21 03:24:22;;;;;;;167.73;23.90;;;7.30;99.90;;;;;;5047017;28;20044;-46
2022/12/21 03:26:50;;;;;;;130.38;21.13;;;6.60;99.90;;;;;;5046763;28;20808;-45
2022/12/21 03:29:21;;;;;;;140.23;21.88;;;6.60;99.90;;;;;;5047118;28;20178;-45
2022/12/21 03:31:52;;;;;;;140.85;21.15;;;6.70;99.90;;;;;;5047247;28;20049;-46
2022/12/21 03:34:26;;;;;;;165.27;20.75;;;6.60;99.90;;;;;;5046650;28;20095;-47
2022/12/21 03:37:00;;;;;;;192.00;21.00;;;7.40;99.90;;;;;;5047133;28;20127;-46
2022/12/21 03:39:28;;;;;;;240.93;26.38;;;6.60;99.90;;;;;;5047495;28;20048;-46
2022/12/21 03:41:58;;;;;;;260.38;24.67;;;6.90;99.90;;;;;;5047334;28;20048;-47
2022/12/21 03:44:34;;;;;;;277.92;26.15;;;6.40;99.90;;;;;;5047573;28;20044;-46
2022/12/21 03:47:04;;;;;;;282.70;26.98;;;6.80;99.90;;;;;;5047513;28;20120;-45
2022/12/21 03:49:50;;;;;;;183.20;23.38;;;7.50;99.90;;;;;;5047688;28;20501;-46
2022/12/21 03:52:19;;;;;;;193.38;22.77;;;7.50;99.90;;;;;;5047968;28;20099;-45
2022/12/21 03:55:06;;;;;;;256.42;24.08;;;7.60;99.90;;;;;;5047668;28;20041;-46
2022/12/21 03:57:33;;;;;;;170.98;21.63;;;6.90;99.90;;;;;;5046952;28;20508;-45
2022/12/21 04:00:01;;;;;;;191.00;23.02;;;7.40;99.90;;;;;;5046943;28;20540;-45
2022/12/21 04:02:37;;;;;;;254.32;25.42;;;6.60;99.90;;;;;;5046744;28;20048;-45
2022/12/21 04:05:10;;;;;;;261.52;24.42;;;6.90;99.90;;;;;;5046781;28;20095;-44
2022/12/21 04:07:38;;;;;;;230.70;22.73;;;6.60;99.90;;;;;;5047048;28;20422;-47
2022/12/21 04:10:08;;;;;;;301.33;24.38;;;6.60;99.90;;;;;;5046246;28;20051;-45
2022/12/21 04:12:37;;;;;;;275.00;26.02;;;6.60;99.90;;;;;;5046462;28;20132;-48
2022/12/21 04:16:02;;;;;;;207.23;20.92;;;6.60;99.90;;;;;;5046549;28;20216;-45
2022/12/21 04:18:10;;;;;;;127.20;17.20;;;6.60;99.90;;;;;;5046379;28;20049;-46
2022/12/21 04:20:36;;;;;;;165.43;19.10;;;6.40;99.90;;;;;;5046827;28;20053;-48
2022/12/21 04:28:31;;;;;;;152.40;18.75;;;6.50;99.90;;;;;;5046919;28;20760;-45
2022/12/21 04:30:59;;;;;;;149.40;18.23;;;7.80;99.90;;;;;;5046384;28;20128;-48
2022/12/21 04:33:28;;;;;;;172.20;19.23;;;7.50;99.90;;;;;;5045153;28;20077;-46
2022/12/21 04:38:41;;;;;;;185.88;20.75;;;6.50;99.90;;;;;;5046739;28;20056;-49
2022/12/21 04:41:07;;;;;;;213.80;20.10;;;7.30;99.90;;;;;;5046365;28;20071;-46
2022/12/21 04:43:36;;;;;;;256.33;23.15;;;6.50;99.90;;;;;;5045222;28;20051;-48
2022/12/21 04:46:13;;;;;;;258.70;24.30;;;7.30;99.90;;;;;;5045395;28;20178;-49
2022/12/21 04:48:40;;;;;;;164.43;20.98;;;6.60;99.90;;;;;;5046969;28;20053;-47
2022/12/21 04:51:08;;;;;;;138.52;20.02;;;6.50;99.90;;;;;;5046810;28;20052;-47
2022/12/21 04:53:34;;;;;;;161.35;21.15;;;6.90;99.90;;;;;;5046700;28;20049;-47
2022/12/21 04:55:59;;;;;;;196.52;22.52;;;7.30;99.90;;;;;;5046307;28;20056;-47
2022/12/21 04:58:25;;;;;;;216.70;22.27;;;7.20;99.90;;;;;;5046401;28;20428;-48
2022/12/21 05:00:51;;;;;;;172.82;22.45;;;7.30;99.90;;;;;;5046356;28;20045;-47
2022/12/21 05:03:19;;;;;;;231.80;24.98;;;6.40;99.90;;;;;;5046073;28;20099;-45
2022/12/21 05:05:45;;;;;;;283.20;26.67;;;6.80;99.90;;;;;;5046581;28;20053;-44
2022/12/21 05:08:12;;;;;;;291.73;28.75;;;7.50;99.90;;;;;;5046461;28;20110;-45
2022/12/21 05:10:38;;;;;;;297.02;27.88;;;6.40;99.90;;;;;;5046378;28;20055;-46
2022/12/21 05:13:04;;;;;;;282.27;27.48;;;7.30;99.90;;;;;;5045914;28;20045;-45
2022/12/21 05:15:30;;;;;;;219.60;25.33;;;6.50;99.90;;;;;;5044634;28;20057;-45
2022/12/21 05:17:57;;;;;;;185.75;22.40;;;7.40;99.90;;;;;;5045750;28;20049;-45
2022/12/21 05:20:23;;;;;;;193.63;23.35;;;6.50;99.90;;;;;;5045963;28;20111;-47
2022/12/21 05:22:48;;;;;;;150.73;20.88;;;7.70;99.90;;;;;;5046324;28;20049;-46
2022/12/21 05:25:14;;;;;;;175.43;21.80;;;7.00;99.90;;;;;;5049230;28;20069;-46
2022/12/21 05:27:40;;;;;;;164.88;22.73;;;6.50;99.90;;;;;;5049468;28;20037;-45
2022/12/21 05:30:06;;;;;;;217.70;25.58;;;6.50;99.90;;;;;;5049648;28;20071;-46
2022/12/21 05:32:32;;;;;;;179.85;22.50;;;6.50;99.90;;;;;;5050229;28;20491;-45
2022/12/21 05:34:57;;;;;;;171.45;23.38;;;7.00;99.90;;;;;;5049014;28;20047;-45
2022/12/21 05:37:23;;;;;;;235.02;25.33;;;7.00;99.90;;;;;;5049452;28;20041;-45
2022/12/21 05:39:49;;;;;;;272.30;25.70;;;6.50;99.90;;;;;;5049193;28;20037;-47
2022/12/21 05:42:14;;;;;;;244.35;26.48;;;6.80;99.90;;;;;;5048860;28;20041;-46
2022/12/21 05:44:40;;;;;;;243.27;27.60;;;7.50;99.90;;;;;;5049409;28;20037;-47
2022/12/21 05:47:06;;;;;;;217.77;25.38;;;6.50;99.90;;;;;;5049183;28;20370;-47
2022/12/21 05:49:31;;;;;;;276.17;29.08;;;6.50;99.90;;;;;;5049134;28;20447;-48
2022/12/21 05:51:57;;;;;;;254.55;28.52;;;6.50;99.90;;;;;;5049431;28;20621;-46
2022/12/21 05:54:22;;;;;;;234.77;27.95;;;6.50;99.90;;;;;;5048930;28;20398;-46
2022/12/21 05:56:48;;;;;;;228.93;29.50;;;6.40;99.90;;;;;;5049396;28;20392;-46
2022/12/21 05:59:15;;;;;;;197.90;28.92;;;6.50;99.90;;;;;;5048667;28;20535;-46
2022/12/21 06:01:41;;;;;;;210.10;28.80;;;7.40;99.90;;;;;;5049195;28;20688;-47
2022/12/21 06:04:07;;;;;;;226.30;31.70;;;7.00;99.90;;;;;;5048550;28;20052;-49
2022/12/21 06:06:33;;;;;;;218.00;30.33;;;6.50;99.90;;;;;;5048771;28;20045;-46
2022/12/21 06:08:58;;;;;;;221.70;31.13;;;6.80;99.90;;;;;;5049018;28;20048;-47
2022/12/21 06:11:25;;;;;;;268.85;31.75;;;7.40;99.90;;;;;;5049186;28;20045;-47
2022/12/21 06:13:51;;;;;;;265.50;33.40;;;7.10;99.90;;;;;;5049181;28;20045;-45
2022/12/21 06:16:20;;;;;;;302.17;36.10;;;7.10;99.90;;;;;;5048502;28;20128;-47
2022/12/21 06:18:46;;;;;;;227.00;32.15;;;6.90;99.90;;;;;;5048887;28;20124;-45
2022/12/21 06:21:13;;;;;;;237.68;33.53;;;7.10;99.90;;;;;;5048982;28;20128;-44
2022/12/21 06:23:40;;;;;;;271.58;33.95;;;6.50;99.90;;;;;;5048872;28;20072;-46
2022/12/21 06:26:07;;;;;;;207.90;32.90;;;6.80;99.90;;;;;;5048959;28;20044;-45
2022/12/21 06:28:34;;;;;;;341.88;35.90;;;6.60;99.90;;;;;;5048591;28;20048;-45
2022/12/21 06:31:04;;;;;;;289.17;36.20;;;6.60;99.90;;;;;;5048493;28;20103;-44
2022/12/21 06:33:30;;;;;;;276.65;35.08;;;8.50;99.90;;;;;;5047728;28;20577;-46
2022/12/21 06:35:56;;;;;;;316.10;37.47;;;7.40;99.90;;;;;;5047921;28;20128;-46
2022/12/21 06:38:23;;;;;;;304.20;37.55;;;7.20;99.90;;;;;;5047919;28;20728;-44
2022/12/21 06:40:59;;;;;;;347.50;40.45;;;7.00;99.90;;;;;;5047913;28;20052;-46
2022/12/21 06:43:27;;;;;;;358.20;39.83;;;6.70;99.90;;;;;;5047957;28;20060;-46
2022/12/21 06:45:54;;;;;;;413.05;45.83;;;6.40;99.90;;;;;;5047973;28;20148;-45
2022/12/21 06:48:20;;;;;;;340.85;39.63;;;7.10;99.90;;;;;;5047786;28;20497;-45
2022/12/21 06:50:57;;;;;;;303.45;38.95;;;6.70;99.90;;;;;;5048238;28;20120;-46
2022/12/21 06:53:24;;;;;;;386.75;42.05;;;6.70;99.90;;;;;;5047767;28;20394;-56
2022/12/21 06:55:57;;;;;;;320.50;38.55;;;6.70;99.90;;;;;;5041905;28;20106;-47
2022/12/21 06:58:22;;;;;;;425.83;45.33;;;6.90;99.90;;;;;;5044700;28;20048;-47
2022/12/21 07:00:49;;;;;;;344.67;41.95;;;7.50;99.90;;;;;;5046850;28;20041;-49
2022/12/21 07:03:15;;;;;;;392.23;42.95;;;7.40;99.90;;;;;;5046010;28;20053;-51
2022/12/21 07:05:41;;;;;;;384.38;43.90;;;6.70;99.90;;;;;;5046069;28;20127;-51
2022/12/21 07:08:06;;;;;;;331.63;42.42;;;7.20;99.90;;;;;;5046408;28;20136;-50
2022/12/21 07:10:33;;;;;;;206.32;35.25;;;6.50;99.90;;;;;;5046463;28;20091;-48
2022/12/21 07:12:59;;;;;;;286.92;43.00;;;6.70;99.90;;;;;;5047017;28;20040;-52
2022/12/21 07:15:24;;;;;;;265.52;42.90;;;7.50;99.90;;;;;;5046453;28;20110;-53
2022/12/21 07:17:50;;;;;;;249.85;38.15;;;6.60;99.90;;;;;;5046190;28;20506;-54
2022/12/21 07:20:16;;;;;;;256.42;39.72;;;6.80;99.90;;;;;;5046575;28;20041;-51
2022/12/21 07:22:41;;;;;;;286.00;40.60;;;6.80;99.90;;;;;;5046862;28;20079;-51
2022/12/21 07:25:07;;;;;;;185.32;35.97;;;7.50;99.90;;;;;;5046745;28;20495;-40
2022/12/21 07:27:33;;;;;;;183.55;34.92;;;6.80;99.90;;;;;;5047128;28;20047;-45
2022/12/21 07:29:59;;;;;;;195.18;37.03;;;6.50;99.90;;;;;;5047383;28;20045;-44
2022/12/21 07:32:24;;;;;;;196.43;35.75;;;7.60;99.90;;;;;;5047184;28;20043;-46
2022/12/21 07:34:50;;;;;;;205.80;35.08;;;6.80;99.90;;;;;;5046768;28;20069;-44
2022/12/21 07:37:15;;;;;;;190.07;34.45;;;7.20;99.90;;;;;;5047220;28;20048;-45
2022/12/21 07:39:41;;;;;;;241.80;38.53;;;6.70;99.90;;;;;;5047203;28;20041;-45
2022/12/21 07:42:07;;;;;;;209.05;36.97;;;6.80;99.90;;;;;;5047414;28;20050;-44
2022/12/21 07:44:32;;;;;;;210.63;35.70;;;6.70;99.90;;;;;;5047159;28;20057;-45
2022/12/21 07:46:58;;;;;;;270.00;39.63;;;6.80;99.90;;;;;;5046644;28;20044;-44
2022/12/21 07:49:24;;;;;;;269.20;39.38;;;7.00;99.90;;;;;;5046875;28;20346;-45
2022/12/21 07:51:49;;;;;;;236.70;37.88;;;6.80;99.90;;;;;;5047421;28;20040;-47
2022/12/21 07:54:15;;;;;;;216.02;36.50;;;6.80;99.90;;;;;;5046961;28;20414;-45
2022/12/21 07:56:41;;;;;;;224.40;35.83;;;6.80;99.90;;;;;;5046929;28;20037;-45
2022/12/21 07:59:06;;;;;;;226.48;36.72;;;7.80;99.90;;;;;;5047429;28;20048;-45
2022/12/21 08:01:32;;;;;;;238.00;37.75;;;6.80;99.90;;;;;;5046773;28;20132;-46
2022/12/21 08:03:58;;;;;;;194.20;35.25;;;7.70;99.90;;;;;;5046411;28;20052;-45
2022/12/21 08:06:24;;;;;;;220.98;34.90;;;7.50;99.90;;;;;;5046891;28;20418;-45
2022/12/21 08:08:50;;;;;;;257.83;38.80;;;7.80;99.90;;;;;;5047040;28;20053;-46
2022/12/21 08:11:19;;;;;;;260.25;38.15;;;6.60;99.90;;;;;;5046570;28;20479;-45
2022/12/21 08:13:45;;;;;;;213.60;34.63;;;6.60;99.90;;;;;;5047344;28;20116;-45
2022/12/21 08:16:13;;;;;;;214.32;36.20;;;7.00;99.90;;;;;;5046793;28;20052;-47
2022/12/21 08:18:39;;;;;;;209.80;34.63;;;6.90;99.90;;;;;;5046814;28;20124;-44
2022/12/21 08:21:05;;;;;;;268.48;37.90;;;7.70;99.90;;;;;;5046605;28;20120;-45
2022/12/21 08:23:30;;;;;;;239.80;36.65;;;6.90;99.90;;;;;;5046415;28;20068;-45
2022/12/21 08:26:05;;;;;;;206.77;32.78;;;6.60;99.90;;;;;;5046729;28;20630;-42
2022/12/21 08:28:31;;;;;;;212.77;34.03;;;6.90;99.90;;;;;;5044920;28;20580;-44
2022/12/21 08:31:12;;;;;;;231.73;36.30;;;6.90;99.90;;;;;;5046239;28;20124;-45
2022/12/21 08:33:41;;;;;;;237.75;36.70;;;6.90;99.90;;;;;;5046235;28;20045;-45
2022/12/21 08:36:15;;;;;;;221.98;36.65;;;7.20;99.90;;;;;;5046077;28;20083;-46
2022/12/21 08:38:40;;;;;;;214.30;37.00;;;6.90;99.90;;;;;;5046120;28;20041;-47
2022/12/21 08:41:06;;;;;;;181.27;32.67;;;7.50;99.90;;;;;;5046316;28;20049;-44
2022/12/21 08:43:35;;;;;;;196.02;36.55;;;6.80;99.90;;;;;;5044422;28;20107;-45
2022/12/21 08:46:05;;;;;;;179.15;35.50;;;6.90;99.90;;;;;;5046514;28;20057;-46
2022/12/21 08:48:31;;;;;;;218.10;36.15;;;6.90;99.90;;;;;;5045564;28;20044;-44
2022/12/21 08:50:57;;;;;;;229.85;37.83;;;5.20;99.90;;;;;;5047099;28;20641;-45
2022/12/21 08:53:24;;;;;;;187.80;37.17;;;7.40;99.90;;;;;;5046722;28;20037;-46
2022/12/21 08:55:50;;;;;;;214.23;37.40;;;6.80;99.90;;;;;;5046164;28;20056;-45
2022/12/21 08:58:16;;;;;;;253.82;37.70;;;6.90;99.90;;;;;;5048563;28;20037;-45
2022/12/21 09:00:42;;;;;;;211.30;35.63;;;6.80;99.90;;;;;;5049752;28;20090;-44
2022/12/21 09:03:09;;;;;;;181.20;32.78;;;7.30;99.90;;;;;;5048241;28;20056;-46
2022/12/21 09:05:35;;;;;;;188.35;35.25;;;7.10;99.90;;;;;;5048400;28;20041;-44
2022/12/21 09:08:01;;;;;;;181.27;34.30;;;8.00;99.90;;;;;;5049998;28;20715;-45
2022/12/21 09:10:28;;;;;;;207.88;37.05;;;7.00;99.90;;;;;;5049791;28;20049;-44
2022/12/21 09:12:55;;;;;;;167.73;33.45;;;7.20;99.90;;;;;;5049504;28;20049;-45
2022/12/21 09:15:21;;;;;;;186.73;34.22;;;7.20;99.90;;;;;;5049782;28;20048;-43
2022/12/21 09:17:47;;;;;;;153.23;34.30;;;7.60;99.90;;;;;;5049572;28;20123;-46
2022/12/21 09:20:13;;;;;;;143.55;32.20;;;7.20;99.90;;;;;;5049750;28;20056;-45
2022/12/21 09:22:39;;;;;;;147.23;33.75;;;7.60;99.90;;;;;;5049787;28;20041;-44
2022/12/21 09:25:06;;;;;;;147.80;35.15;;;7.80;99.90;;;;;;5049465;28;20442;-44
2022/12/21 09:27:32;;;;;;;140.30;32.38;;;7.30;99.90;;;;;;5049526;28;20037;-44
2022/12/21 09:29:58;;;;;;;139.57;32.08;;;7.80;99.90;;;;;;5049785;28;20067;-44
2022/12/21 09:32:23;;;;;;;165.63;36.25;;;8.30;99.90;;;;;;5049126;28;20055;-45
2022/12/21 09:34:49;;;;;;;163.45;36.80;;;7.60;99.90;;;;;;5048921;28;20099;-45
2022/12/21 09:37:15;;;;;;;163.60;37.25;;;7.50;99.90;;;;;;5049533;28;20075;-46
2022/12/21 09:39:41;;;;;;;145.32;35.00;;;8.20;99.90;;;;;;5049146;28;20041;-45
2022/12/21 09:42:26;;;;;;;149.32;34.78;;;7.60;99.90;;;;;;5049152;28;20041;-47
2022/12/21 09:45:16;;;;;;;149.63;36.42;;;7.70;99.90;;;;;;5049136;28;20391;-44
2022/12/21 09:47:53;;;;;;;145.63;35.70;;;7.80;99.90;;;;;;5049522;28;20049;-44
2022/12/21 09:50:25;;;;;;;162.38;38.70;;;7.70;99.90;;;;;;5049280;28;20212;-45
2022/12/21 09:52:58;;;;;;;154.50;38.05;;;7.80;99.90;;;;;;5048897;28;20044;-45
2022/12/21 09:55:27;;;;;;;160.80;36.60;;;7.80;99.90;;;;;;5048939;28;20044;-44
2022/12/21 09:57:54;;;;;;;158.52;38.30;;;7.90;99.90;;;;;;5048936;28;20045;-45
2022/12/21 10:00:22;;;;;;;144.85;35.25;;;7.90;99.90;;;;;;5049106;28;20081;-46
2022/12/21 10:03:14;;;;;;;141.10;36.53;;;8.70;99.90;;;;;;5049070;28;20080;-45
2022/12/21 10:05:43;;;;;;;132.88;35.05;;;8.10;99.90;;;;;;5048976;28;20057;-48
2022/12/21 10:08:33;;;;;;;139.75;35.47;;;8.10;99.90;;;;;;5047026;28;20072;-46
2022/12/21 10:11:25;;;;;;;128.35;32.95;;;8.00;99.90;;;;;;5048149;28;20364;-44
2022/12/21 10:14:16;;;;;;;141.90;34.28;;;7.90;99.90;;;;;;5048598;28;20045;-45
2022/12/21 10:16:57;;;;;;;111.07;31.77;;;7.90;99.90;;;;;;5048421;28;20543;-46
2022/12/21 10:19:34;;;;;;;113.03;30.23;;;7.80;99.90;;;;;;5048594;28;20095;-47
2022/12/21 10:22:15;;;;;;;118.85;30.42;;;7.70;99.90;;;;;;5027359;28;20049;-50
2022/12/21 10:24:46;;;;;;;132.15;33.50;;;7.60;99.90;;;;;;5046634;28;20117;-48
2022/12/21 10:27:53;;;;;;;111.43;30.48;;;7.60;99.90;;;;;;5046858;28;20037;-46
2022/12/21 10:30:19;;;;;;;127.10;31.83;;;7.60;99.90;;;;;;5025890;28;20052;-47
2022/12/21 10:32:47;;;;;;;114.10;31.42;;;7.60;99.90;;;;;;5046731;28;20480;-48
2022/12/21 10:35:20;;;;;;;120.30;32.40;;;7.70;99.90;;;;;;5045057;28;20056;-47
2022/12/21 10:37:52;;;;;;;118.50;32.70;;;7.70;99.90;;;;;;5046301;28;20483;-46
2022/12/21 10:40:22;;;;;;;118.57;34.70;;;7.70;99.90;;;;;;5046639;28;20076;-47
2022/12/21 10:42:50;;;;;;;126.43;32.63;;;8.10;99.90;;;;;;5046582;28;20041;-47
2022/12/21 10:45:18;;;;;;;108.40;31.77;;;7.80;99.90;;;;;;5046253;28;20045;-50
2022/12/21 10:47:44;;;;;;;109.35;32.63;;;7.80;99.90;;;;;;5046014;28;20084;-49
2022/12/21 10:50:21;;;;;;;109.68;30.10;;;8.60;99.90;;;;;;5046403;28;20120;-49
2022/12/21 10:52:49;;;;;;;101.43;30.33;;;7.60;99.90;;;;;;5046363;28;20471;-46
2022/12/21 10:55:18;;;;;;;97.60;30.10;;;7.70;99.90;;;;;;5046233;28;20091;-47
2022/12/21 10:58:01;;;;;;;98.18;26.95;;;7.60;99.90;;;;;;5046007;28;20048;-48
2022/12/21 11:00:29;;;;;;;98.43;28.05;;;8.60;99.90;;;;;;5046560;28;20072;-48
2022/12/21 11:03:00;;;;;;;94.45;27.65;;;7.40;99.90;;;;;;5046243;28;20049;-49
2022/12/21 11:05:38;;;;;;;97.40;29.73;;;7.50;99.90;;;;;;5045853;28;20053;-43
2022/12/21 11:08:13;;;;;;;83.03;26.17;;;7.30;99.90;;;;;;5035775;28;20091;-46
2022/12/21 11:10:43;;;;;;;80.78;25.65;;;7.30;99.90;;;;;;5044098;28;20490;-55
2022/12/21 11:13:11;;;;;;;78.53;26.10;;;7.30;99.90;;;;;;5040433;28;20044;-49
2022/12/21 11:15:37;;;;;;;84.82;26.85;;;7.30;99.90;;;;;;5044094;28;20110;-50
2022/12/21 11:18:03;;;;;;;73.60;23.52;;;7.20;99.90;;;;;;5043354;28;20048;-47
2022/12/21 11:20:30;;;;;;;72.90;23.52;;;7.20;99.90;;;;;;5044565;28;20052;-49
2022/12/21 11:22:58;;;;;;;74.55;24.95;;;7.30;99.90;;;;;;5017829;28;20061;-48
2022/12/21 11:25:29;;;;;;;78.50;25.13;;;7.10;99.90;;;;;;5044277;28;20052;-46
2022/12/21 11:27:59;;;;;;;76.43;24.70;;;7.00;99.90;;;;;;5045211;28;20045;-45
2022/12/21 11:30:31;;;;;;;83.97;26.75;;;7.00;99.90;;;;;;5045035;28;20049;-48
2022/12/21 11:32:59;;;;;;;75.70;25.27;;;7.00;99.90;;;;;;5044672;28;20049;-51
2022/12/21 11:35:27;;;;;;;81.78;25.50;;;6.90;99.90;;;;;;5043560;28;20049;-55
2022/12/21 11:38:03;;;;;;;86.53;27.45;;;6.90;99.90;;;;;;5044623;28;20101;-49
2022/12/21 11:40:30;;;;;;;94.82;28.38;;;6.90;99.90;;;;;;5044650;28;20045;-53
2022/12/21 11:42:58;;;;;;;100.18;28.05;;;6.80;99.90;;;;;;5044683;28;20582;-55
2022/12/21 11:45:35;;;;;;;90.47;28.02;;;7.20;99.90;;;;;;5044763;28;20135;-58
2022/12/21 11:48:23;;;;;;;99.53;28.80;;;7.00;99.90;;;;;;5044605;28;20067;-58
2022/12/21 11:51:22;;;;;;;109.43;28.75;;;7.00;99.90;;;;;;5044230;28;20041;-58
2022/12/21 11:54:00;;;;;;;99.72;29.10;;;7.00;99.90;;;;;;5044681;28;20487;-47
2022/12/21 11:56:34;;;;;;;108.28;29.95;;;7.00;99.90;;;;;;5044468;28;20041;-46
2022/12/21 11:59:24;;;;;;;99.05;30.20;;;6.90;99.90;;;;;;5043537;28;20056;-48
2022/12/21 12:02:23;;;;;;;92.78;25.63;;;7.10;99.90;;;;;;5044388;28;20098;-54
2022/12/21 12:05:06;;;;;;;95.80;28.98;;;7.10;99.90;;;;;;5044441;28;20041;-51
2022/12/21 12:08:13;;;;;;;98.75;28.27;;;7.10;99.90;;;;;;5043089;28;20216;-53
2022/12/21 12:10:59;;;;;;;95.18;29.10;;;7.60;99.90;;;;;;5036209;28;20144;-52
2022/12/21 12:14:09;;;;;;;97.50;29.45;;;7.10;99.90;;;;;;5042686;28;20064;-53
2022/12/21 12:16:42;;;;;;;91.68;27.23;;;7.20;99.90;;;;;;5046285;28;20052;-46
2022/12/21 12:19:23;;;;;;;86.00;26.63;;;7.20;99.90;;;;;;5045954;28;20139;-57
2022/12/21 12:22:38;;;;;;;94.68;28.83;;;7.20;99.90;;;;;;5044965;28;20068;-49
2022/12/21 12:25:22;;;;;;;93.85;28.33;;;7.10;99.90;;;;;;5008563;28;20147;-46
2022/12/21 12:28:11;;;;;;;92.22;26.98;;;4.90;99.90;;;;;;5046300;28;20045;-44
2022/12/21 12:31:16;;;;;;;93.80;28.50;;;7.10;99.90;;;;;;5046737;28;20037;-45
2022/12/21 12:33:58;;;;;;;96.88;29.73;;;7.10;99.90;;;;;;5049663;28;20041;-55
2022/12/21 12:36:36;;;;;;;96.25;30.33;;;7.10;99.90;;;;;;5050070;28;20080;-55
2022/12/21 12:39:07;;;;;;;91.70;28.67;;;7.10;99.90;;;;;;5049526;28;20055;-55
2022/12/21 12:41:58;;;;;;;102.43;31.00;;;7.10;99.90;;;;;;5049363;28;20052;-55
2022/12/21 12:44:44;;;;;;;108.28;31.33;;;7.10;99.90;;;;;;5049187;28;20124;-54
2022/12/21 12:47:44;;;;;;;90.10;28.85;;;7.00;99.90;;;;;;5050336;28;20447;-55
2022/12/21 12:50:43;;;;;;;97.18;29.38;;;7.00;99.90;;;;;;5048483;28;20049;-56
2022/12/21 12:53:41;;;;;;;91.65;28.15;;;6.90;99.90;;;;;;5047667;28;20052;-50
2022/12/21 12:56:27;;;;;;;94.55;27.13;;;6.90;99.90;;;;;;5049106;28;20115;-53
2022/12/21 12:59:55;;;;;;;85.68;26.35;;;6.90;99.90;;;;;;5048748;28;20135;-53
2022/12/21 13:02:48;;;;;;;83.70;27.95;;;6.90;99.90;;;;;;5005601;28;20104;-49
2022/12/21 13:05:16;;;;;;;103.80;30.73;;;6.90;99.90;;;;;;4989390;28;20127;-58